Time;durP1;ratioP1;P1;durP2;ratioP2;P2;SDS_P1;SDS_P2;PMS_P1;PMS_P2;Temp;Humidity;BMP_temperature;BMP_pressure;BME280_temperature;BME280_humidity;BME280_pressure;Samples;Min_cycle;Max_cycle;Signal;HPM_P1;HPM_P2
2021/06/14 00:01:37;;;;;;;10.93;6.85;;;;;;;12.32;87.24;101075.98;2678772;88;21052;-66
2021/06/14 00:05:43;;;;;;;7.40;5.67;;;;;;;12.48;87.57;101080.98;2679419;88;21075;-66
2021/06/14 00:09:46;;;;;;;10.48;5.50;;;;;;;12.66;87.51;101086.22;2679416;88;21056;-66
2021/06/14 00:13:48;;;;;;;7.75;5.03;;;;;;;12.87;86.42;101086.84;2679448;88;21080;-66
2021/06/14 00:17:50;;;;;;;8.85;5.70;;;;;;;12.71;84.88;101076.02;2685520;88;21120;-65
2021/06/14 00:21:52;;;;;;;7.35;5.20;;;;;;;12.53;85.29;101074.33;2686064;88;21048;-65
2021/06/14 00:25:54;;;;;;;11.63;5.95;;;;;;;12.36;85.74;101069.44;2686111;88;21047;-65
2021/06/14 00:29:56;;;;;;;12.70;5.67;;;;;;;12.21;86.19;101072.81;2685831;88;21016;-65
2021/06/14 00:33:59;;;;;;;10.85;5.92;;;;;;;12.16;86.84;101070.95;2685922;88;21052;-66
2021/06/14 00:38:00;;;;;;;9.23;4.90;;;;;;;12.26;87.12;101059.95;2685830;88;21056;-65
2021/06/14 00:42:04;;;;;;;7.45;5.20;;;;;;;12.37;86.48;101058.62;2685397;88;21115;-65
2021/06/14 00:46:07;;;;;;;9.63;5.33;;;;;;;12.49;85.38;101058.66;2685552;88;21088;-65
2021/06/14 00:50:10;;;;;;;8.38;5.60;;;;;;;12.49;84.33;101055.52;2685912;88;21083;-65
2021/06/14 00:54:13;;;;;;;10.25;6.20;;;;;;;12.50;83.76;101048.35;2686271;88;21076;-65
2021/06/14 00:58:16;;;;;;;6.58;5.20;;;;;;;12.50;83.42;101054.55;2685961;88;21064;-65
2021/06/14 01:02:18;;;;;;;10.30;6.37;;;;;;;12.51;83.18;101060.72;2685762;88;21088;-65
2021/06/14 01:06:20;;;;;;;8.10;6.12;;;;;;;12.51;83.20;101058.05;2693973;87;20988;-65
2021/06/14 01:10:22;;;;;;;10.48;5.95;;;;;;;12.39;82.95;101053.19;2705445;88;21047;-65
2021/06/14 01:14:32;;;;;;;10.88;6.08;;;;;;;12.36;83.10;101048.93;2703474;88;21051;-65
2021/06/14 01:18:58;;;;;;;9.35;5.72;;;;;;;12.37;83.16;101058.62;2562635;91;21788;-65
2021/06/14 01:23:25;;;;;;;9.63;6.83;;;;;;;12.34;83.11;101055.38;2666826;88;21087;-64
2021/06/14 01:27:46;;;;;;;8.90;5.83;;;;;;;12.16;83.52;101046.95;2562462;92;21569;-65
2021/06/14 01:31:48;;;;;;;9.63;4.58;;;;;;;11.95;84.11;101056.92;2666400;89;21335;-65
2021/06/14 01:35:57;;;;;;;8.15;6.78;;;;;;;11.91;84.43;101054.98;2666858;89;21306;-65
2021/06/14 01:40:01;;;;;;;9.73;6.55;;;;;;;12.03;84.94;101051.04;2666103;89;21060;-65
2021/06/14 01:44:05;;;;;;;8.13;5.85;;;;;;;12.11;85.27;101046.83;2666666;89;21100;-65
2021/06/14 01:48:09;;;;;;;6.60;5.15;;;;;;;12.14;85.33;101045.25;2562211;93;21141;-65
2021/06/14 01:52:11;;;;;;;9.50;5.67;;;;;;;12.15;86.16;101038.11;2666670;89;21044;-65
2021/06/14 01:56:14;;;;;;;8.23;4.62;;;;;;;12.21;86.97;101036.30;2666611;89;21040;-65
2021/06/14 02:00:19;;;;;;;14.33;6.87;;;;;;;12.32;87.46;101043.47;2667037;89;21060;-65
2021/06/14 02:04:21;;;;;;;11.30;6.55;;;;;;;12.40;87.56;101045.08;2666221;89;21574;-65
2021/06/14 02:08:23;;;;;;;7.95;5.62;;;;;;;12.49;88.03;101046.66;2562580;93;21064;-65
2021/06/14 02:12:28;;;;;;;14.75;6.78;;;;;;;12.54;87.33;101046.66;2666913;89;21072;-65
2021/06/14 02:16:32;;;;;;;8.60;5.87;;;;;;;12.53;87.57;101045.44;2582763;91;21100;-65
2021/06/14 02:20:34;;;;;;;12.70;6.40;;;;;;;12.69;88.97;101043.27;2693446;88;21624;-65
2021/06/14 02:24:37;;;;;;;7.30;5.20;;;;;;;12.87;87.46;101036.11;2693718;88;21024;-65
2021/06/14 02:28:39;;;;;;;10.00;5.72;;;;;;;12.88;86.76;101036.97;2693735;88;21139;-65
2021/06/14 02:32:43;;;;;;;10.90;5.83;;;;;;;12.88;86.77;101035.13;2694118;88;21048;-64
2021/06/14 02:36:47;;;;;;;6.70;5.00;;;;;;;12.91;86.66;101028.20;2693906;88;21095;-65
2021/06/14 02:40:49;;;;;;;10.88;6.60;;;;;;;12.84;85.94;101027.02;2693859;88;21075;-65
2021/06/14 02:44:51;;;;;;;8.10;6.10;;;;;;;12.75;86.17;101017.91;2693588;88;21114;-65
2021/06/14 02:48:54;;;;;;;9.60;6.65;;;;;;;12.86;87.20;101029.91;2693876;88;21083;-65
2021/06/14 02:52:56;;;;;;;10.98;5.87;;;;;;;12.99;86.33;101016.44;2693868;88;21028;-65
2021/06/14 02:57:00;;;;;;;9.63;6.33;;;;;;;13.07;85.32;101017.16;2693888;88;21055;-65
2021/06/14 03:01:05;;;;;;;9.63;5.92;;;;;;;13.12;84.89;101016.77;2693887;88;21040;-66
2021/06/14 03:05:09;;;;;;;8.03;5.53;;;;;;;13.09;84.03;101019.69;2693037;88;21576;-66
2021/06/14 03:09:12;;;;;;;6.75;5.17;;;;;;;13.04;83.73;101015.22;2693851;88;21055;-66
2021/06/14 03:13:15;;;;;;;8.48;5.08;;;;;;;13.04;83.97;101017.89;2693739;87;21048;-65
2021/06/14 03:17:17;;;;;;;6.65;5.28;;;;;;;13.14;84.11;101018.34;2695313;87;21004;-65
2021/06/14 03:21:24;;;;;;;6.80;4.90;;;;;;;13.19;83.69;101018.45;2696997;88;21047;-66
2021/06/14 03:25:26;;;;;;;6.42;4.95;;;;;;;13.19;83.69;101019.31;2683028;87;21015;-65
2021/06/14 03:29:28;;;;;;;7.80;5.75;;;;;;;13.24;84.39;101021.59;2712284;87;21031;-66
2021/06/14 03:33:31;;;;;;;10.05;5.10;;;;;;;13.26;84.87;101021.84;2712237;87;21086;-65
2021/06/14 03:37:34;;;;;;;13.53;5.92;;;;;;;13.33;85.88;101016.84;2712121;87;21083;-66
2021/06/14 03:41:42;;;;;;;8.33;6.53;;;;;;;13.60;86.37;101024.09;2675581;88;21553;-66
2021/06/14 03:45:45;;;;;;;13.75;6.03;;;;;;;13.83;86.07;101023.48;2697550;88;22284;-65
2021/06/14 03:49:47;;;;;;;10.70;7.45;;;;;;;14.07;86.04;101017.05;2697565;88;21048;-65
2021/06/14 03:54:01;;;;;;;14.80;6.83;;;;;;;14.26;84.58;101027.02;2697381;88;21071;-66
2021/06/14 03:58:03;;;;;;;8.35;5.70;;;;;;;14.25;83.46;101028.86;2697432;88;21562;-66
2021/06/14 04:02:05;;;;;;;9.90;6.37;;;;;;;14.30;83.48;101028.44;2697199;88;21040;-66
2021/06/14 04:06:07;;;;;;;8.70;5.78;;;;;;;14.31;83.31;101022.61;2697399;88;21055;-66
2021/06/14 04:10:11;;;;;;;7.12;5.87;;;;;;;14.27;82.45;101023.35;2697479;88;21028;-66
2021/06/14 04:14:12;;;;;;;9.33;6.97;;;;;;;14.17;82.69;101015.78;2697480;88;21158;-66
2021/06/14 04:18:14;;;;;;;9.15;5.97;;;;;;;14.15;84.06;101014.55;2697398;87;21131;-65
2021/06/14 04:22:16;;;;;;;11.60;6.85;;;;;;;14.42;84.93;101015.34;2698297;88;21040;-66
2021/06/14 04:26:18;;;;;;;10.38;6.50;;;;;;;15.12;85.49;101011.09;2698159;88;21082;-66
2021/06/14 04:30:21;;;;;;;9.85;7.47;;;;;;;16.01;85.39;101013.83;2698578;88;21104;-66
2021/06/14 04:34:23;;;;;;;10.53;6.95;;;;;;;16.95;81.55;101012.95;2699149;88;21083;-67
2021/06/14 04:38:25;;;;;;;25.80;8.05;;;;;;;17.59;76.72;101007.23;2698921;88;21012;-66
2021/06/14 04:42:28;;;;;;;11.70;8.58;;;;;;;18.13;74.48;101009.38;2699335;87;21056;-66
2021/06/14 04:46:30;;;;;;;8.95;6.58;;;;;;;18.62;71.86;101009.30;2609477;91;21088;-66
2021/06/14 04:50:32;;;;;;;7.42;5.50;;;;;;;18.64;68.89;101003.25;2609507;91;21040;-66
2021/06/14 04:54:33;;;;;;;11.40;8.55;;;;;;;18.86;68.62;101005.53;2609351;91;21026;-67
2021/06/14 04:58:35;;;;;;;10.20;8.25;;;;;;;19.16;69.43;101002.80;2607399;91;21053;-67
2021/06/14 05:02:37;;;;;;;8.73;7.60;;;;;;;19.55;68.63;100999.48;2652021;89;21017;-67
2021/06/14 05:06:39;;;;;;;10.90;6.95;;;;;;;19.91;67.01;101004.20;2625019;90;21086;-67
2021/06/14 05:10:41;;;;;;;10.78;7.83;;;;;;;19.88;65.28;101002.67;2652037;89;21112;-68
2021/06/14 05:14:42;;;;;;;11.00;5.95;;;;;;;19.87;65.32;101002.86;2608299;91;21068;-68
2021/06/14 05:18:44;;;;;;;11.12;6.95;;;;;;;19.88;65.22;101001.84;2652575;88;21059;-68
2021/06/14 05:22:46;;;;;;;8.90;6.67;;;;;;;20.02;66.12;101001.69;2626109;90;21060;-68
2021/06/14 05:26:50;;;;;;;13.62;7.83;;;;;;;20.19;64.17;101007.89;2652432;89;21084;-70
2021/06/14 05:30:51;;;;;;;11.38;6.83;;;;;;;20.14;64.66;101009.75;2607317;90;21059;-67
2021/06/14 05:34:53;;;;;;;7.83;7.00;;;;;;;19.70;64.42;101000.98;2625455;90;21112;-68
2021/06/14 05:38:55;;;;;;;12.65;7.28;;;;;;;19.76;65.23;101008.92;2652146;89;21027;-69
2021/06/14 05:42:56;;;;;;;12.88;7.65;;;;;;;19.98;64.81;101006.58;2609460;91;21080;-69
2021/06/14 05:46:58;;;;;;;16.12;8.18;;;;;;;20.15;64.22;101010.61;2637842;89;21044;-68
2021/06/14 05:51:00;;;;;;;11.35;6.97;;;;;;;20.24;64.06;101006.86;2622457;90;21096;-69
2021/06/14 05:55:07;;;;;;;11.78;6.92;;;;;;;20.42;63.71;101016.13;2621633;90;22247;-69
2021/06/14 05:59:09;;;;;;;11.22;6.72;;;;;;;20.92;63.23;101007.84;2622202;90;21065;-70
2021/06/14 06:03:12;;;;;;;9.40;6.03;;;;;;;21.35;61.39;101010.14;2622823;90;21116;-69
2021/06/14 06:07:14;;;;;;;10.75;6.12;;;;;;;21.58;60.52;101014.21;2622668;90;21057;-70
2021/06/14 06:11:16;;;;;;;12.03;6.25;;;;;;;21.64;60.74;101020.77;2623552;90;21057;-69
2021/06/14 06:15:20;;;;;;;10.28;6.35;;;;;;;22.05;60.05;101016.87;2623352;90;21092;-69
2021/06/14 06:19:21;;;;;;;9.25;6.35;;;;;;;22.35;58.82;101020.46;2620989;90;21061;-70
2021/06/14 06:23:23;;;;;;;6.10;5.33;;;;;;;22.67;57.79;101021.66;2620511;91;21081;-70
2021/06/14 06:27:25;;;;;;;11.70;6.58;;;;;;;23.16;57.79;101014.73;2619680;91;21041;-70
2021/06/14 06:31:27;;;;;;;6.80;5.17;;;;;;;23.75;56.28;101012.84;2619968;91;21065;-70
2021/06/14 06:35:28;;;;;;;5.80;5.00;;;;;;;24.14;55.02;101023.41;2620082;91;21136;-70
2021/06/14 06:39:30;;;;;;;11.78;6.83;;;;;;;24.29;55.17;101020.61;2619799;91;21112;-70
2021/06/14 06:43:34;;;;;;;10.72;6.03;;;;;;;24.31;53.72;101017.99;2620657;91;21041;-69
2021/06/14 06:47:36;;;;;;;14.28;6.78;;;;;;;24.40;53.80;101011.88;2602421;91;21029;-69
2021/06/14 06:51:37;;;;;;;14.23;5.92;;;;;;;24.81;53.24;101017.05;2620906;91;21042;-70
2021/06/14 06:55:39;;;;;;;8.95;5.37;;;;;;;25.12;52.37;101018.39;2620987;91;21065;-70
2021/06/14 06:59:41;;;;;;;7.65;5.62;;;;;;;25.22;51.41;101008.47;2620779;91;21042;-70
2021/06/14 07:03:44;;;;;;;10.78;6.08;;;;;;;25.47;50.65;101008.77;2621128;91;21026;-69
2021/06/14 07:07:47;;;;;;;10.43;5.72;;;;;;;25.58;50.32;101008.67;2620598;91;21061;-68
2021/06/14 07:11:48;;;;;;;10.40;6.70;;;;;;;25.80;50.62;101015.27;2620857;90;21053;-68
2021/06/14 07:15:50;;;;;;;11.65;6.20;;;;;;;25.73;48.86;101017.17;2620351;91;21076;-68
2021/06/14 07:19:52;;;;;;;7.67;5.85;;;;;;;25.50;48.98;101008.34;2631621;90;21116;-68
2021/06/14 07:23:54;;;;;;;11.70;5.05;;;;;;;25.19;48.73;101011.10;2632008;90;21088;-68
2021/06/14 07:27:56;;;;;;;10.88;5.62;;;;;;;25.33;49.17;101005.16;2589473;92;21586;-68
2021/06/14 07:31:59;;;;;;;17.45;6.40;;;;;;;25.17;48.88;101002.30;2620764;91;21097;-68
2021/06/14 07:36:10;;;;;;;9.53;5.95;;;;;;;24.49;49.61;101001.68;2683282;87;21060;-68
2021/06/14 07:40:14;;;;;;;12.13;7.08;;;;;;;24.19;51.38;101006.02;2683071;88;21057;-68
2021/06/14 07:44:16;;;;;;;7.40;5.45;;;;;;;24.19;50.72;101006.02;2682800;87;21076;-69
2021/06/14 07:48:18;;;;;;;11.10;6.92;;;;;;;24.04;50.25;100994.72;2682637;87;21080;-69
2021/06/14 07:52:20;;;;;;;10.08;6.65;;;;;;;23.90;51.21;100998.34;2682973;87;21084;-68
2021/06/14 07:56:23;;;;;;;12.35;6.60;;;;;;;23.72;51.22;100995.58;2682911;88;21060;-68
2021/06/14 08:00:26;;;;;;;11.70;7.60;;;;;;;23.52;51.31;100996.25;2682827;87;21076;-68
2021/06/14 08:04:29;;;;;;;9.03;5.78;;;;;;;23.77;52.00;100990.39;2682597;87;21045;-70
2021/06/14 08:08:32;;;;;;;11.93;7.45;;;;;;;24.20;51.02;101000.90;2682676;88;21073;-69
2021/06/14 08:12:38;;;;;;;10.38;6.37;;;;;;;24.53;49.54;100992.07;2682910;88;21120;-67
2021/06/14 08:16:42;;;;;;;9.93;6.67;;;;;;;25.05;48.43;100983.52;2681785;88;21104;-70
2021/06/14 08:25:10;;;;;;;9.93;6.40;;;;;;;25.21;46.66;100983.15;2569748;92;21558;-69
2021/06/14 08:29:14;;;;;;;13.08;7.65;;;;;;;25.59;45.93;100983.64;2595466;91;21085;-69
2021/06/14 08:33:15;;;;;;;9.98;6.37;;;;;;;25.85;45.37;100984.68;2591449;91;21078;-69
2021/06/14 08:37:18;;;;;;;14.07;6.03;;;;;;;25.97;45.61;100988.45;2662299;88;21030;-69
2021/06/14 08:41:24;;;;;;;11.75;5.50;;;;;;;25.62;47.01;100981.32;2658836;88;21049;-69
2021/06/14 08:45:27;;;;;;;8.98;5.55;;;;;;;25.23;48.85;100976.97;2652134;89;21100;-70
2021/06/14 08:49:29;;;;;;;8.43;5.65;;;;;;;24.66;47.85;100983.13;2658965;88;21108;-70
2021/06/14 08:53:31;;;;;;;8.08;5.45;;;;;;;24.41;49.43;100980.11;2664034;88;21041;-69
2021/06/14 08:57:37;;;;;;;8.70;6.45;;;;;;;24.72;48.72;100973.33;2652925;88;21104;-69
2021/06/14 09:01:39;;;;;;;11.22;6.33;;;;;;;24.99;47.22;100972.93;2661560;88;21045;-69
2021/06/14 09:05:42;;;;;;;11.00;6.28;;;;;;;24.90;46.69;100977.72;2661557;88;21046;-70
2021/06/14 09:09:48;;;;;;;12.95;7.72;;;;;;;24.83;47.15;100978.23;2657446;88;21055;-70
2021/06/14 09:13:55;;;;;;;7.92;5.30;;;;;;;24.83;46.67;100968.70;2653908;88;21092;-70
2021/06/14 09:17:57;;;;;;;13.90;7.62;;;;;;;24.77;46.96;100972.25;2670600;86;21136;-70
2021/06/14 09:22:23;;;;;;;14.63;6.75;;;;;;;24.59;46.48;100973.61;2704562;86;21051;-70
2021/06/14 09:26:32;;;;;;;13.70;6.83;;;;;;;24.28;46.79;100957.23;2700643;86;21043;-69
2021/06/14 09:30:35;;;;;;;12.20;6.00;;;;;;;24.15;49.49;100959.87;2716609;86;21030;-69
2021/06/14 09:34:43;;;;;;;10.00;6.10;;;;;;;24.04;50.94;100956.69;2711533;86;21038;-70
2021/06/14 09:38:45;;;;;;;9.03;6.67;;;;;;;24.08;49.60;100947.09;2700468;86;21008;-70
2021/06/14 09:42:47;;;;;;;11.12;6.37;;;;;;;24.00;48.06;100930.92;2715478;86;21055;-71
2021/06/14 09:47:08;;;;;;;9.75;5.90;;;;;;;23.97;49.76;100923.14;2711028;86;21142;-69
2021/06/14 09:51:09;;;;;;;15.08;5.35;;;;;;;23.86;49.21;100926.44;2711770;86;21968;-70
2021/06/14 09:55:15;;;;;;;8.90;5.05;;;;;;;23.92;48.42;100926.98;2711843;86;21020;-69
2021/06/14 09:59:25;;;;;;;10.05;6.83;;;;;;;23.99;49.07;100915.66;2704813;86;21035;-69
2021/06/14 10:03:44;;;;;;;9.25;5.90;;;;;;;23.84;47.87;100917.11;2703957;86;21059;-70
2021/06/14 10:07:48;;;;;;;16.52;6.72;;;;;;;23.84;48.88;100917.65;2715447;86;21050;-71
2021/06/14 10:11:50;;;;;;;13.07;5.63;;;;;;;23.65;49.00;100901.02;2712546;86;21062;-70
2021/06/14 10:16:00;;;;;;;12.70;5.72;;;;;;;23.49;48.92;100900.27;2712212;86;21067;-70
2021/06/14 10:20:24;;;;;;;8.43;6.08;;;;;;;23.47;49.23;100898.77;2701393;86;21076;-70
2021/06/14 10:24:28;;;;;;;11.43;5.80;;;;;;;23.44;49.45;100901.37;2718469;86;21073;-70
2021/06/14 10:28:30;;;;;;;8.85;5.97;;;;;;;23.39;49.92;100893.81;2711246;86;21583;-69
2021/06/14 10:32:35;;;;;;;11.30;6.45;;;;;;;23.24;48.47;100888.95;2713803;86;21048;-70
2021/06/14 10:36:40;;;;;;;8.53;5.75;;;;;;;23.11;50.01;100899.17;2713602;86;21140;-69
2021/06/14 10:40:42;;;;;;;8.60;5.53;;;;;;;23.29;50.11;100891.12;2717497;86;21033;-71
2021/06/14 10:44:44;;;;;;;9.45;6.33;;;;;;;23.38;50.75;100888.57;2713735;86;21268;-70
2021/06/14 10:48:48;;;;;;;8.63;6.12;;;;;;;23.50;49.55;100882.94;2714519;86;21061;-70
2021/06/14 10:52:50;;;;;;;9.15;6.28;;;;;;;23.58;49.82;100878.38;2714114;86;21079;-70
2021/06/14 10:57:03;;;;;;;7.33;6.00;;;;;;;23.61;50.56;100879.38;2711088;86;21063;-70
2021/06/14 11:01:09;;;;;;;10.58;6.83;;;;;;;23.63;49.28;100878.66;2714244;86;21042;-70
2021/06/14 11:05:12;;;;;;;9.95;6.58;;;;;;;23.81;48.64;100867.27;2712146;86;21033;-70
2021/06/14 11:09:16;;;;;;;9.70;6.50;;;;;;;23.94;49.83;100871.94;2703612;86;21033;-70
2021/06/14 11:13:18;;;;;;;10.25;6.10;;;;;;;23.91;49.60;100868.27;2713554;86;21056;-70
2021/06/14 11:17:29;;;;;;;11.28;6.15;;;;;;;23.78;49.74;100859.52;2703908;86;21102;-70
2021/06/14 11:21:31;;;;;;;7.70;6.12;;;;;;;23.85;50.08;100851.41;2693233;86;21052;-70
2021/06/14 11:25:46;;;;;;;10.23;5.70;;;;;;;23.98;50.59;100841.14;2691136;86;21059;-70
2021/06/14 11:29:53;;;;;;;11.47;7.70;;;;;;;24.03;48.38;100839.53;2687582;86;21048;-71
2021/06/14 11:34:02;;;;;;;11.78;6.50;;;;;;;24.08;48.11;100832.96;2707338;86;21031;-70
2021/06/14 11:38:07;;;;;;;6.20;5.62;;;;;;;24.22;48.53;100826.23;2756699;86;21047;-70
2021/06/14 11:42:14;;;;;;;13.08;6.80;;;;;;;24.33;47.88;100809.31;2755120;86;21060;-69
2021/06/14 11:46:24;;;;;;;11.40;6.58;;;;;;;24.36;49.97;100809.44;2756624;86;21071;-70
2021/06/14 11:50:28;;;;;;;9.80;6.15;;;;;;;24.35;50.42;100809.95;2755574;86;21043;-71
2021/06/14 11:54:31;;;;;;;7.67;5.70;;;;;;;24.26;49.02;100809.83;2755808;86;21066;-71
2021/06/14 11:58:33;;;;;;;7.78;5.17;;;;;;;24.17;49.67;100808.31;2756104;86;21107;-71
2021/06/14 12:02:36;;;;;;;9.98;5.42;;;;;;;24.31;49.61;100810.05;2756140;86;21031;-71
2021/06/14 12:06:52;;;;;;;8.20;5.60;;;;;;;24.49;47.60;100805.91;2756077;86;21063;-71
2021/06/14 12:10:58;;;;;;;12.25;6.83;;;;;;;24.64;46.70;100806.58;2756052;86;21075;-72
2021/06/14 12:15:05;;;;;;;8.98;5.83;;;;;;;24.69;50.31;100800.52;2755952;86;21079;-71
2021/06/14 12:19:07;;;;;;;7.20;5.53;;;;;;;24.82;50.96;100791.56;2755021;86;21043;-70
2021/06/14 12:23:13;;;;;;;7.90;6.78;;;;;;;24.99;50.70;100787.08;2754037;86;21023;-70
2021/06/14 12:27:15;;;;;;;9.40;5.90;;;;;;;24.98;48.60;100788.94;2753696;86;21032;-72
2021/06/14 12:31:19;;;;;;;8.45;6.25;;;;;;;25.05;49.66;100793.03;2753552;86;20992;-71
2021/06/14 12:35:28;;;;;;;9.23;5.65;;;;;;;25.12;48.88;100784.33;2753462;86;21055;-69
2021/06/14 12:39:30;;;;;;;8.30;5.22;;;;;;;25.20;46.80;100771.88;2754185;86;21339;-71
2021/06/14 12:43:34;;;;;;;10.55;5.78;;;;;;;25.24;47.63;100767.67;2754953;86;21008;-71
2021/06/14 12:47:44;;;;;;;14.47;6.12;;;;;;;25.36;48.76;100766.50;2755566;86;21044;-71
2021/06/14 12:51:46;;;;;;;6.35;5.03;;;;;;;25.37;47.93;100756.45;2755016;86;21035;-71
2021/06/14 12:56:25;;;;;;;9.23;5.45;;;;;;;25.46;46.87;100756.53;2754831;86;21015;-71
2021/06/14 13:00:49;;;;;;;8.58;5.87;;;;;;;25.45;46.58;100738.52;2755207;86;21044;-70
2021/06/14 13:05:24;;;;;;;8.58;4.78;;;;;;;25.53;46.33;100728.77;2755288;86;21107;-71
2021/06/14 13:09:25;;;;;;;8.60;6.28;;;;;;;25.44;45.45;100720.51;2754284;86;21036;-71
2021/06/14 13:13:35;;;;;;;8.90;4.62;;;;;;;25.46;45.87;100710.78;2755351;86;21050;-71
2021/06/14 13:17:37;;;;;;;10.03;5.90;;;;;;;25.52;47.29;100712.12;2755514;86;21000;-71
2021/06/14 13:21:39;;;;;;;7.78;5.45;;;;;;;25.50;47.73;100710.69;2754821;86;21027;-72
2021/06/14 13:26:18;;;;;;;12.50;6.78;;;;;;;25.52;47.60;100705.31;2755356;86;21028;-71
2021/06/14 13:30:23;;;;;;;8.23;4.72;;;;;;;25.64;50.24;100704.66;2754827;86;21179;-71
2021/06/14 13:35:02;;;;;;;12.30;5.33;;;;;;;25.74;47.36;100696.84;2755697;86;21055;-71
2021/06/14 13:39:14;;;;;;;12.82;6.33;;;;;;;25.82;46.65;100694.39;2754834;86;21051;-71
2021/06/14 13:43:30;;;;;;;10.23;6.03;;;;;;;26.00;45.48;100687.38;2755460;86;21155;-71
2021/06/14 13:47:37;;;;;;;9.25;5.72;;;;;;;26.17;45.71;100687.74;2737468;86;21709;-71
2021/06/14 13:51:48;;;;;;;15.58;8.23;;;;;;;26.35;44.96;100681.52;2708414;87;21098;-71
2021/06/14 13:56:07;;;;;;;9.48;6.83;;;;;;;26.04;45.23;100680.43;2708350;87;21609;-70
2021/06/14 14:00:14;;;;;;;9.63;6.03;;;;;;;25.78;46.40;100683.12;2708657;88;21072;-69
2021/06/14 14:04:27;;;;;;;9.33;5.42;;;;;;;25.71;45.17;100672.76;2708445;88;21048;-69
2021/06/14 14:08:29;;;;;;;6.87;5.00;;;;;;;25.66;46.54;100673.95;2708482;87;21059;-70
2021/06/14 14:12:31;;;;;;;8.45;5.92;;;;;;;25.65;45.16;100666.83;2708965;88;21043;-69
2021/06/14 14:16:34;;;;;;;7.97;5.95;;;;;;;25.66;45.43;100660.33;2708231;88;21085;-70
2021/06/14 14:20:36;;;;;;;8.18;6.17;;;;;;;25.59;44.97;100652.73;2707254;88;21047;-68
2021/06/14 14:24:38;;;;;;;9.70;6.12;;;;;;;25.69;45.51;100645.45;2707748;88;21083;-68
2021/06/14 14:28:40;;;;;;;5.90;5.25;;;;;;;25.70;44.80;100652.02;2707204;88;21071;-68
2021/06/14 14:32:42;;;;;;;8.40;5.87;;;;;;;25.68;45.17;100647.32;2707723;88;21047;-68
2021/06/14 14:36:51;;;;;;;6.33;5.37;;;;;;;25.70;44.10;100643.84;2707556;87;21103;-68
2021/06/14 14:40:53;;;;;;;9.23;4.97;;;;;;;25.80;44.96;100637.41;2707722;88;21086;-68
2021/06/14 14:44:56;;;;;;;8.00;5.25;;;;;;;25.92;44.91;100641.64;2707717;87;21082;-67
2021/06/14 14:49:01;;;;;;;8.65;5.37;;;;;;;25.92;44.48;100639.42;2708022;87;20992;-66
2021/06/14 14:53:02;;;;;;;;;;;;;;;25.96;45.44;100627.05;2710423;87;21942;-68
2021/06/14 14:57:09;;;;;;;5.90;4.40;;;;;;;25.82;44.15;100638.54;2707706;88;20129;-68
2021/06/14 15:01:11;;;;;;;5.17;4.28;;;;;;;25.62;44.25;100635.94;2707258;87;21107;-70
2021/06/14 15:05:15;;;;;;;8.45;5.37;;;;;;;25.63;44.74;100629.44;2707320;88;20984;-71
2021/06/14 15:09:17;;;;;;;8.23;5.85;;;;;;;25.74;44.48;100627.37;2706963;87;21048;-70
2021/06/14 15:13:20;;;;;;;9.63;5.25;;;;;;;25.84;44.39;100629.62;2724726;86;21053;-70
2021/06/14 15:17:28;;;;;;;7.30;4.95;;;;;;;25.96;44.62;100632.50;2728605;86;21073;-71
2021/06/14 15:21:31;;;;;;;7.60;5.08;;;;;;;26.06;44.65;100623.30;2730882;86;21130;-69
2021/06/14 15:25:37;;;;;;;6.12;4.75;;;;;;;26.14;44.78;100625.44;2723144;86;21012;-70
2021/06/14 15:29:38;;;;;;;7.23;5.47;;;;;;;26.19;43.81;100614.20;2708825;86;21511;-70
2021/06/14 15:33:40;;;;;;;7.05;4.55;;;;;;;26.17;44.37;100622.32;2717657;86;21024;-70
2021/06/14 15:38:01;;;;;;;7.87;5.05;;;;;;;26.11;44.87;100617.19;2696232;86;21035;-71
2021/06/14 15:42:18;;;;;;;13.03;5.50;;;;;;;26.09;45.38;100605.67;2701090;86;21527;-70
2021/06/14 15:46:21;;;;;;;7.80;5.37;;;;;;;26.24;44.79;100604.01;2734300;86;21143;-70
2021/06/14 15:50:23;;;;;;;8.43;5.00;;;;;;;26.41;44.83;100593.91;2753944;86;21064;-70
2021/06/14 15:54:25;;;;;;;6.47;4.95;;;;;;;26.43;44.15;100595.88;2749981;86;21066;-69
2021/06/14 15:58:27;;;;;;;8.43;5.10;;;;;;;26.34;43.67;100585.78;2709086;86;21076;-69
2021/06/14 16:02:31;;;;;;;7.58;5.25;;;;;;;26.28;44.71;100589.41;2729207;86;21165;-69
2021/06/14 16:06:32;;;;;;;9.28;6.00;;;;;;;26.09;44.25;100595.59;2725179;86;21077;-69
2021/06/14 16:10:34;;;;;;;10.13;5.03;;;;;;;25.90;45.02;100597.42;2711366;86;21094;-69
2021/06/14 16:14:37;;;;;;;9.60;5.05;;;;;;;25.70;44.95;100592.64;2706686;86;21085;-70
2021/06/14 16:18:38;;;;;;;7.50;5.37;;;;;;;25.57;44.98;100578.58;2684834;88;21038;-70
2021/06/14 16:22:42;;;;;;;8.30;5.30;;;;;;;25.42;45.65;100578.81;2670712;89;21034;-70
2021/06/14 16:26:43;;;;;;;9.70;5.03;;;;;;;25.30;45.46;100575.95;2670568;89;21030;-70
2021/06/14 16:30:46;;;;;;;8.38;5.37;;;;;;;25.28;45.98;100572.09;2670691;88;21098;-70
2021/06/14 16:34:50;;;;;;;14.68;6.60;;;;;;;25.24;45.67;100570.33;2670413;89;21552;-70
2021/06/14 16:38:51;;;;;;;6.85;5.08;;;;;;;25.20;46.11;100572.33;2670548;89;21138;-70
2021/06/14 16:42:53;;;;;;;8.35;6.37;;;;;;;25.13;46.15;100568.27;2670338;89;20991;-70
2021/06/14 16:46:57;;;;;;;6.60;4.75;;;;;;;24.92;45.92;100568.87;2670356;89;21142;-71
2021/06/14 16:50:59;;;;;;;8.15;5.67;;;;;;;24.79;46.50;100565.67;2673992;86;21115;-68
2021/06/14 16:55:10;;;;;;;9.85;6.37;;;;;;;24.60;46.69;100565.16;2694021;88;21016;-68
2021/06/14 16:59:14;;;;;;;12.05;5.60;;;;;;;24.49;47.17;100569.37;2692147;88;21059;-69
2021/06/14 17:03:16;;;;;;;9.55;6.03;;;;;;;24.26;47.31;100565.22;2691593;88;21068;-68
2021/06/14 17:07:19;;;;;;;10.23;6.10;;;;;;;24.08;47.32;100573.47;2693791;88;21070;-69
2021/06/14 17:11:21;;;;;;;11.63;6.25;;;;;;;24.03;47.45;100571.91;2693378;87;21074;-68
2021/06/14 17:15:26;;;;;;;10.75;5.33;;;;;;;23.99;48.34;100569.78;2693188;88;21041;-68
2021/06/14 17:19:27;;;;;;;6.53;5.08;;;;;;;23.96;48.57;100574.58;2693405;87;21108;-68
2021/06/14 17:23:28;;;;;;;12.00;6.72;;;;;;;23.90;48.01;100567.78;2693604;88;21035;-68
2021/06/14 17:27:32;;;;;;;11.18;5.87;;;;;;;23.86;47.80;100565.17;2693556;87;21022;-67
2021/06/14 17:31:34;;;;;;;22.52;6.78;;;;;;;23.79;48.45;100563.30;2693556;88;21034;-67
2021/06/14 17:35:36;;;;;;;13.83;5.47;;;;;;;23.66;49.67;100560.55;2693173;88;21038;-70
2021/06/14 17:39:38;;;;;;;15.63;7.05;;;;;;;23.51;51.06;100562.91;2706676;87;21048;-68
2021/06/14 17:43:42;;;;;;;12.75;7.30;;;;;;;23.47;49.56;100560.30;2715811;87;21036;-68
2021/06/14 17:47:53;;;;;;;8.58;7.40;;;;;;;23.34;50.20;100550.25;2715830;87;21051;-69
2021/06/14 17:51:55;;;;;;;13.90;10.25;;;;;;;23.22;52.00;100558.11;2716037;87;21087;-68
2021/06/14 17:55:58;;;;;;;17.20;11.25;;;;;;;23.13;52.73;100555.23;2715934;87;21008;-68
2021/06/14 18:00:00;;;;;;;14.60;9.33;;;;;;;22.99;53.95;100556.21;2715793;87;21033;-69
2021/06/14 18:04:04;;;;;;;17.42;10.85;;;;;;;22.81;55.71;100548.13;2715898;87;21031;-68
2021/06/14 18:08:07;;;;;;;23.27;15.03;;;;;;;22.74;56.78;100552.66;2716154;87;21008;-69
2021/06/14 18:12:10;;;;;;;20.32;13.83;;;;;;;22.68;57.59;100548.36;2716086;86;20996;-68
2021/06/14 18:16:12;;;;;;;23.25;14.55;;;;;;;22.62;57.41;100542.39;2715963;87;21027;-69
2021/06/14 18:20:16;;;;;;;31.80;20.35;;;;;;;22.56;57.52;100543.70;2719386;86;21039;-70
2021/06/14 18:24:18;;;;;;;30.85;18.60;;;;;;;22.42;57.48;100537.33;2727672;87;21090;-70
2021/06/14 18:28:20;;;;;;;31.48;19.27;;;;;;;22.26;57.63;100532.53;2728039;87;21011;-70
2021/06/14 18:32:22;;;;;;;16.85;11.55;;;;;;;22.23;57.90;100534.28;2727763;86;21070;-69
2021/06/14 18:36:28;;;;;;;16.45;9.35;;;;;;;22.18;57.96;100539.42;2727662;87;21039;-69
2021/06/14 18:40:29;;;;;;;;;;;;;;;22.08;58.02;100540.62;2730486;87;21030;-70
2021/06/14 18:44:31;;;;;;;12.63;7.47;;;;;;;21.95;58.95;100541.85;2727400;86;20230;-71
2021/06/14 18:48:33;;;;;;;15.13;6.78;;;;;;;21.72;59.38;100541.55;2727655;87;21038;-70
2021/06/14 18:52:35;;;;;;;10.05;8.20;;;;;;;21.49;59.81;100541.19;2727552;87;21268;-68
2021/06/14 18:56:38;;;;;;;16.62;8.65;;;;;;;21.27;60.31;100540.30;2725973;86;21058;-68